sensor_id;sensor_type;location;lat;lon;timestamp;pressure;altitude;pressure_sealevel;temperature
31528;BMP280;10206;48.012;10.030;2023-02-13T00:01:20;96487.06;;;4.80
31528;BMP280;10206;48.012;10.030;2023-02-13T00:03:46;96479.72;;;5.34
31528;BMP280;10206;48.012;10.030;2023-02-13T00:06:12;96480.50;;;4.97
31528;BMP280;10206;48.012;10.030;2023-02-13T00:08:38;96481.81;;;5.61
31528;BMP280;10206;48.012;10.030;2023-02-13T00:11:04;96479.06;;;4.96
31528;BMP280;10206;48.012;10.030;2023-02-13T00:13:31;96479.19;;;5.24
31528;BMP280;10206;48.012;10.030;2023-02-13T00:15:59;96481.03;;;5.49
31528;BMP280;10206;48.012;10.030;2023-02-13T00:18:26;96483.50;;;5.53
31528;BMP280;10206;48.012;10.030;2023-02-13T00:21:08;96472.66;;;4.94
31528;BMP280;10206;48.012;10.030;2023-02-13T00:23:35;96479.63;;;5.76
31528;BMP280;10206;48.012;10.030;2023-02-13T00:26:06;96474.91;;;5.60
31528;BMP280;10206;48.012;10.030;2023-02-13T00:28:32;96481.59;;;5.64
31528;BMP280;10206;48.012;10.030;2023-02-13T00:31:10;96476.22;;;5.81
31528;BMP280;10206;48.012;10.030;2023-02-13T00:33:37;96471.91;;;5.36
31528;BMP280;10206;48.012;10.030;2023-02-13T00:36:05;96474.16;;;5.48
31528;BMP280;10206;48.012;10.030;2023-02-13T00:38:32;96477.31;;;5.36
31528;BMP280;10206;48.012;10.030;2023-02-13T00:40:58;96467.75;;;5.57
31528;BMP280;10206;48.012;10.030;2023-02-13T00:43:24;96474.72;;;5.75
31528;BMP280;10206;48.012;10.030;2023-02-13T00:45:50;96471.66;;;5.39
31528;BMP280;10206;48.012;10.030;2023-02-13T00:48:16;96484.34;;;5.92
31528;BMP280;10206;48.012;10.030;2023-02-13T00:50:42;96474.91;;;5.54
31528;BMP280;10206;48.012;10.030;2023-02-13T00:53:08;96476.47;;;5.89
31528;BMP280;10206;48.012;10.030;2023-02-13T00:55:34;96477.97;;;5.84
31528;BMP280;10206;48.012;10.030;2023-02-13T00:58:00;96477.44;;;5.91
31528;BMP280;10206;48.012;10.030;2023-02-13T01:00:27;96478.72;;;5.96
31528;BMP280;10206;48.012;10.030;2023-02-13T01:02:53;96476.47;;;5.94
31528;BMP280;10206;48.012;10.030;2023-02-13T01:05:19;96483.56;;;5.69
31528;BMP280;10206;48.012;10.030;2023-02-13T01:07:45;96478.72;;;5.96
31528;BMP280;10206;48.012;10.030;2023-02-13T01:10:11;96477.56;;;5.38
31528;BMP280;10206;48.012;10.030;2023-02-13T01:12:37;96482.88;;;5.80
31528;BMP280;10206;48.012;10.030;2023-02-13T01:15:06;96487.09;;;6.09
31528;BMP280;10206;48.012;10.030;2023-02-13T01:17:32;96489.06;;;6.14
31528;BMP280;10206;48.012;10.030;2023-02-13T01:19:58;96485.66;;;6.24
31528;BMP280;10206;48.012;10.030;2023-02-13T01:22:24;96477.47;;;6.02
31528;BMP280;10206;48.012;10.030;2023-02-13T01:24:50;96475.78;;;5.99
31528;BMP280;10206;48.012;10.030;2023-02-13T01:27:16;96475.53;;;6.08
31528;BMP280;10206;48.012;10.030;2023-02-13T01:29:42;96477.53;;;6.24
31528;BMP280;10206;48.012;10.030;2023-02-13T01:32:08;96475.78;;;6.27
31528;BMP280;10206;48.012;10.030;2023-02-13T01:34:35;96479.97;;;6.11
31528;BMP280;10206;48.012;10.030;2023-02-13T01:37:01;96475.81;;;6.32
31528;BMP280;10206;48.012;10.030;2023-02-13T01:39:27;96478.97;;;6.20
31528;BMP280;10206;48.012;10.030;2023-02-13T01:41:53;96481.19;;;5.94
31528;BMP280;10206;48.012;10.030;2023-02-13T01:44:54;96480.19;;;6.08
31528;BMP280;10206;48.012;10.030;2023-02-13T01:47:40;96484.91;;;6.18
31528;BMP280;10206;48.012;10.030;2023-02-13T01:50:10;96489.78;;;5.98
31528;BMP280;10206;48.012;10.030;2023-02-13T01:52:40;96483.38;;;5.84
31528;BMP280;10206;48.012;10.030;2023-02-13T01:55:09;96494.72;;;5.99
31528;BMP280;10206;48.012;10.030;2023-02-13T01:57:37;96483.41;;;6.17
31528;BMP280;10206;48.012;10.030;2023-02-13T02:00:10;96485.41;;;6.22
31528;BMP280;10206;48.012;10.030;2023-02-13T02:02:38;96487.88;;;6.31
31528;BMP280;10206;48.012;10.030;2023-02-13T02:05:07;96494.50;;;6.42
31528;BMP280;10206;48.012;10.030;2023-02-13T02:07:35;96486.59;;;6.27
31528;BMP280;10206;48.012;10.030;2023-02-13T02:10:14;96488.09;;;6.28
31528;BMP280;10206;48.012;10.030;2023-02-13T02:12:47;96488.84;;;6.34
31528;BMP280;10206;48.012;10.030;2023-02-13T02:15:15;96493.78;;;6.24
31528;BMP280;10206;48.012;10.030;2023-02-13T02:17:41;96493.00;;;6.02
31528;BMP280;10206;48.012;10.030;2023-02-13T02:20:23;96492.28;;;6.12
31528;BMP280;10206;48.012;10.030;2023-02-13T02:38:47;96488.78;;;6.01
31528;BMP280;10206;48.012;10.030;2023-02-13T02:41:36;96487.38;;;6.16
31528;BMP280;10206;48.012;10.030;2023-02-13T02:47:48;96499.94;;;6.19
31528;BMP280;10206;48.012;10.030;2023-02-13T02:50:45;96497.22;;;6.30
31528;BMP280;10206;48.012;10.030;2023-02-13T02:58:51;96501.66;;;6.33
31528;BMP280;10206;48.012;10.030;2023-02-13T03:01:38;96501.94;;;6.36
31528;BMP280;10206;48.012;10.030;2023-02-13T03:04:37;96505.09;;;6.28
31528;BMP280;10206;48.012;10.030;2023-02-13T03:07:23;96508.22;;;5.83
31528;BMP280;10206;48.012;10.030;2023-02-13T03:09:56;96507.53;;;6.15
31528;BMP280;10206;48.012;10.030;2023-02-13T03:13:00;96511.03;;;6.32
31528;BMP280;10206;48.012;10.030;2023-02-13T03:15:48;96506.81;;;6.09
31528;BMP280;10206;48.012;10.030;2023-02-13T03:18:44;96509.03;;;6.16
31528;BMP280;10206;48.012;10.030;2023-02-13T03:22:01;96506.59;;;6.29
31528;BMP280;10206;48.012;10.030;2023-02-13T03:27:36;96510.28;;;6.26
31528;BMP280;10206;48.012;10.030;2023-02-13T03:30:42;96507.13;;;6.39
31528;BMP280;10206;48.012;10.030;2023-02-13T03:36:23;96512.75;;;6.36
31528;BMP280;10206;48.012;10.030;2023-02-13T03:41:57;96514.44;;;6.05
31528;BMP280;10206;48.012;10.030;2023-02-13T03:44:32;96509.03;;;6.16
31528;BMP280;10206;48.012;10.030;2023-02-13T03:47:01;96518.41;;;6.32
31528;BMP280;10206;48.012;10.030;2023-02-13T03:49:44;96519.31;;;5.90
31528;BMP280;10206;48.012;10.030;2023-02-13T03:52:53;96528.38;;;5.76
31528;BMP280;10206;48.012;10.030;2023-02-13T03:55:27;96528.44;;;5.93
31528;BMP280;10206;48.012;10.030;2023-02-13T03:58:20;96534.63;;;5.99
31528;BMP280;10206;48.012;10.030;2023-02-13T04:01:07;96533.78;;;5.65
31528;BMP280;10206;48.012;10.030;2023-02-13T04:03:49;96532.22;;;5.10
31528;BMP280;10206;48.012;10.030;2023-02-13T04:06:19;96533.53;;;5.74
31528;BMP280;10206;48.012;10.030;2023-02-13T04:08:46;96536.44;;;5.59
31528;BMP280;10206;48.012;10.030;2023-02-13T04:11:30;96538.75;;;5.89
31528;BMP280;10206;48.012;10.030;2023-02-13T04:14:00;96538.38;;;5.53
31528;BMP280;10206;48.012;10.030;2023-02-13T04:16:36;96545.50;;;5.51
31528;BMP280;10206;48.012;10.030;2023-02-13T04:19:04;96544.19;;;5.83
31528;BMP280;10206;48.012;10.030;2023-02-13T04:21:33;96548.88;;;5.94
31528;BMP280;10206;48.012;10.030;2023-02-13T04:23:59;96546.41;;;5.90
31528;BMP280;10206;48.012;10.030;2023-02-13T04:26:28;96547.56;;;5.78
31528;BMP280;10206;48.012;10.030;2023-02-13T04:28:56;96550.72;;;5.65
31528;BMP280;10206;48.012;10.030;2023-02-13T04:31:22;96549.34;;;5.87
31528;BMP280;10206;48.012;10.030;2023-02-13T04:33:48;96547.47;;;5.50
31528;BMP280;10206;48.012;10.030;2023-02-13T04:36:15;96545.84;;;5.69
31528;BMP280;10206;48.012;10.030;2023-02-13T04:38:41;96540.25;;;6.01
31528;BMP280;10206;48.012;10.030;2023-02-13T04:41:07;96543.94;;;5.81
31528;BMP280;10206;48.012;10.030;2023-02-13T04:43:33;96537.78;;;5.92
31528;BMP280;10206;48.012;10.030;2023-02-13T04:45:59;96540.38;;;5.58
31528;BMP280;10206;48.012;10.030;2023-02-13T04:48:25;96543.63;;;5.68
31528;BMP280;10206;48.012;10.030;2023-02-13T04:50:51;96545.53;;;5.62
31528;BMP280;10206;48.012;10.030;2023-02-13T04:53:17;96543.13;;;5.75
31528;BMP280;10206;48.012;10.030;2023-02-13T04:55:43;96551.56;;;5.83
31528;BMP280;10206;48.012;10.030;2023-02-13T04:58:09;96546.06;;;5.66
31528;BMP280;10206;48.012;10.030;2023-02-13T05:00:35;96551.75;;;5.74
31528;BMP280;10206;48.012;10.030;2023-02-13T05:03:07;96542.38;;;5.69
31528;BMP280;10206;48.012;10.030;2023-02-13T05:05:34;96545.94;;;5.44
31528;BMP280;10206;48.012;10.030;2023-02-13T05:08:00;96555.06;;;5.46
31528;BMP280;10206;48.012;10.030;2023-02-13T05:10:27;96559.28;;;5.53
31528;BMP280;10206;48.012;10.030;2023-02-13T05:12:53;96557.13;;;5.20
31528;BMP280;10206;48.012;10.030;2023-02-13T05:15:19;96554.25;;;5.29
31528;BMP280;10206;48.012;10.030;2023-02-13T05:17:46;96559.94;;;5.37
31528;BMP280;10206;48.012;10.030;2023-02-13T05:20:13;96552.84;;;5.45
31528;BMP280;10206;48.012;10.030;2023-02-13T05:22:47;96544.94;;;5.36
31528;BMP280;10206;48.012;10.030;2023-02-13T05:25:32;96549.41;;;5.07
31528;BMP280;10206;48.012;10.030;2023-02-13T05:27:59;96547.44;;;5.45
31528;BMP280;10206;48.012;10.030;2023-02-13T05:30:25;96547.88;;;5.32
31528;BMP280;10206;48.012;10.030;2023-02-13T05:32:51;96551.53;;;5.29
31528;BMP280;10206;48.012;10.030;2023-02-13T05:35:20;96550.69;;;5.12
31528;BMP280;10206;48.012;10.030;2023-02-13T05:37:47;96553.94;;;5.16
31528;BMP280;10206;48.012;10.030;2023-02-13T05:40:14;96551.72;;;5.20
31528;BMP280;10206;48.012;10.030;2023-02-13T05:42:40;96549.72;;;5.15
31528;BMP280;10206;48.012;10.030;2023-02-13T05:45:07;96553.03;;;4.93
31528;BMP280;10206;48.012;10.030;2023-02-13T05:47:34;96547.94;;;5.06
31528;BMP280;10206;48.012;10.030;2023-02-13T05:50:00;96547.06;;;4.84
31528;BMP280;10206;48.012;10.030;2023-02-13T05:52:26;96549.34;;;4.65
31528;BMP280;10206;48.012;10.030;2023-02-13T05:54:52;96545.72;;;4.68
31528;BMP280;10206;48.012;10.030;2023-02-13T05:57:18;96550.22;;;4.82
31528;BMP280;10206;48.012;10.030;2023-02-13T05:59:44;96550.75;;;4.86
31528;BMP280;10206;48.012;10.030;2023-02-13T06:02:11;96543.19;;;4.96
31528;BMP280;10206;48.012;10.030;2023-02-13T06:04:37;96544.28;;;5.09
31528;BMP280;10206;48.012;10.030;2023-02-13T06:07:03;96543.53;;;5.09
31528;BMP280;10206;48.012;10.030;2023-02-13T06:09:29;96546.09;;;4.87
31528;BMP280;10206;48.012;10.030;2023-02-13T06:11:55;96554.97;;;4.93
31528;BMP280;10206;48.012;10.030;2023-02-13T06:14:21;96546.69;;;5.02
31528;BMP280;10206;48.012;10.030;2023-02-13T06:16:47;96554.34;;;5.09
31528;BMP280;10206;48.012;10.030;2023-02-13T06:19:13;96557.19;;;4.94
31528;BMP280;10206;48.012;10.030;2023-02-13T06:21:39;96557.34;;;4.80
31528;BMP280;10206;48.012;10.030;2023-02-13T06:24:06;96560.84;;;4.86
31528;BMP280;10206;48.012;10.030;2023-02-13T06:26:33;96556.69;;;4.90
31528;BMP280;10206;48.012;10.030;2023-02-13T06:28:59;96560.84;;;4.86
31528;BMP280;10206;48.012;10.030;2023-02-13T06:31:26;96562.47;;;5.09
31528;BMP280;10206;48.012;10.030;2023-02-13T06:33:53;96556.56;;;5.05
31528;BMP280;10206;48.012;10.030;2023-02-13T06:36:19;96567.13;;;5.08
31528;BMP280;10206;48.012;10.030;2023-02-13T06:38:45;96571.25;;;4.98
31528;BMP280;10206;48.012;10.030;2023-02-13T06:41:11;96580.09;;;4.99
31528;BMP280;10206;48.012;10.030;2023-02-13T06:43:37;96580.41;;;5.06
31528;BMP280;10206;48.012;10.030;2023-02-13T06:46:07;96584.56;;;5.02
31528;BMP280;10206;48.012;10.030;2023-02-13T06:48:33;96580.41;;;5.06
31528;BMP280;10206;48.012;10.030;2023-02-13T06:50:59;96579.56;;;4.95
31528;BMP280;10206;48.012;10.030;2023-02-13T06:53:27;96585.44;;;4.88
31528;BMP280;10206;48.012;10.030;2023-02-13T06:55:53;96587.00;;;5.00
31528;BMP280;10206;48.012;10.030;2023-02-13T06:58:24;96587.00;;;5.00
31528;BMP280;10206;48.012;10.030;2023-02-13T07:00:51;96584.97;;;4.95
31528;BMP280;10206;48.012;10.030;2023-02-13T07:03:18;96587.44;;;4.93
31528;BMP280;10206;48.012;10.030;2023-02-13T07:05:44;96581.94;;;4.82
31528;BMP280;10206;48.012;10.030;2023-02-13T07:08:11;96584.13;;;4.78
31528;BMP280;10206;48.012;10.030;2023-02-13T07:10:39;96581.84;;;4.71
31528;BMP280;10206;48.012;10.030;2023-02-13T07:13:05;96582.09;;;5.04
31528;BMP280;10206;48.012;10.030;2023-02-13T07:15:35;96589.72;;;5.00
31528;BMP280;10206;48.012;10.030;2023-02-13T07:18:02;96595.13;;;4.74
31528;BMP280;10206;48.012;10.030;2023-02-13T07:20:28;96594.91;;;5.03
31528;BMP280;10206;48.012;10.030;2023-02-13T07:23:03;96596.47;;;5.16
31528;BMP280;10206;48.012;10.030;2023-02-13T07:25:30;96587.44;;;4.93
31528;BMP280;10206;48.012;10.030;2023-02-13T07:28:01;96602.81;;;4.81
31528;BMP280;10206;48.012;10.030;2023-02-13T07:30:29;96594.41;;;5.05
31528;BMP280;10206;48.012;10.030;2023-02-13T07:33:00;96601.53;;;5.08
31528;BMP280;10206;48.012;10.030;2023-02-13T07:35:27;96612.69;;;4.84
31528;BMP280;10206;48.012;10.030;2023-02-13T07:37:53;96609.72;;;4.82
31528;BMP280;10206;48.012;10.030;2023-02-13T07:40:20;96622.41;;;5.02
31528;BMP280;10206;48.012;10.030;2023-02-13T07:42:46;96616.81;;;5.05
31528;BMP280;10206;48.012;10.030;2023-02-13T07:45:12;96615.13;;;5.14
31528;BMP280;10206;48.012;10.030;2023-02-13T07:47:41;96623.22;;;4.82
31528;BMP280;10206;48.012;10.030;2023-02-13T07:50:08;96616.69;;;4.94
31528;BMP280;10206;48.012;10.030;2023-02-13T07:52:34;96623.56;;;5.21
31528;BMP280;10206;48.012;10.030;2023-02-13T07:55:03;96627.72;;;5.17
31528;BMP280;10206;48.012;10.030;2023-02-13T07:57:29;96632.03;;;5.08
31528;BMP280;10206;48.012;10.030;2023-02-13T07:59:56;96628.59;;;5.08
31528;BMP280;10206;48.012;10.030;2023-02-13T08:02:23;96632.97;;;5.31
31528;BMP280;10206;48.012;10.030;2023-02-13T08:04:49;96635.41;;;5.29
31528;BMP280;10206;48.012;10.030;2023-02-13T08:07:15;96634.13;;;5.25
31528;BMP280;10206;48.012;10.030;2023-02-13T08:09:44;96643.03;;;4.68
31528;BMP280;10206;48.012;10.030;2023-02-13T08:12:29;96631.25;;;5.34
31528;BMP280;10206;48.012;10.030;2023-02-13T08:14:56;96632.09;;;5.45
31528;BMP280;10206;48.012;10.030;2023-02-13T08:17:22;96625.16;;;5.07
31528;BMP280;10206;48.012;10.030;2023-02-13T08:19:48;96631.75;;;4.75
31528;BMP280;10206;48.012;10.030;2023-02-13T08:22:14;96628.44;;;4.86
31528;BMP280;10206;48.012;10.030;2023-02-13T08:24:40;96636.41;;;5.32
31528;BMP280;10206;48.012;10.030;2023-02-13T08:27:08;96631.34;;;5.45
31528;BMP280;10206;48.012;10.030;2023-02-13T08:29:35;96637.56;;;5.20
31528;BMP280;10206;48.012;10.030;2023-02-13T08:32:01;96642.63;;;5.38
31528;BMP280;10206;48.012;10.030;2023-02-13T08:34:28;96639.59;;;5.30
31528;BMP280;10206;48.012;10.030;2023-02-13T08:36:54;96633.38;;;5.19
31528;BMP280;10206;48.012;10.030;2023-02-13T08:39:20;96633.38;;;5.19
31528;BMP280;10206;48.012;10.030;2023-02-13T08:41:46;96641.66;;;5.46
31528;BMP280;10206;48.012;10.030;2023-02-13T08:44:12;96633.28;;;5.39
31528;BMP280;10206;48.012;10.030;2023-02-13T08:46:38;96645.81;;;5.10
31528;BMP280;10206;48.012;10.030;2023-02-13T08:49:04;96635.34;;;5.24
31528;BMP280;10206;48.012;10.030;2023-02-13T08:51:30;96637.34;;;5.60
31528;BMP280;10206;48.012;10.030;2023-02-13T08:53:57;96635.94;;;5.33
31528;BMP280;10206;48.012;10.030;2023-02-13T08:56:23;96638.56;;;5.22
31528;BMP280;10206;48.012;10.030;2023-02-13T08:58:49;96635.59;;;5.51
31528;BMP280;10206;48.012;10.030;2023-02-13T09:01:16;96630.53;;;5.70
31528;BMP280;10206;48.012;10.030;2023-02-13T09:03:42;96642.41;;;5.89
31528;BMP280;10206;48.012;10.030;2023-02-13T09:06:08;96631.63;;;6.00
31528;BMP280;10206;48.012;10.030;2023-02-13T09:08:35;96633.41;;;6.14
31528;BMP280;10206;48.012;10.030;2023-02-13T09:11:03;96632.34;;;6.01
31528;BMP280;10206;48.012;10.030;2023-02-13T09:13:31;96631.97;;;5.29
31528;BMP280;10206;48.012;10.030;2023-02-13T09:16:00;96633.94;;;5.28
31528;BMP280;10206;48.012;10.030;2023-02-13T09:18:27;96628.28;;;5.68
31528;BMP280;10206;48.012;10.030;2023-02-13T09:21:05;96629.19;;;5.54
31528;BMP280;10206;48.012;10.030;2023-02-13T09:23:32;96635.50;;;5.88
31528;BMP280;10206;48.012;10.030;2023-02-13T09:26:00;96640.19;;;5.88
31528;BMP280;10206;48.012;10.030;2023-02-13T09:28:28;96642.22;;;5.56
31528;BMP280;10206;48.012;10.030;2023-02-13T09:30:54;96634.16;;;5.61
31528;BMP280;10206;48.012;10.030;2023-02-13T09:33:20;96644.56;;;5.74
31528;BMP280;10206;48.012;10.030;2023-02-13T09:35:46;96639.59;;;5.67
31528;BMP280;10206;48.012;10.030;2023-02-13T09:38:12;96637.47;;;5.82
31528;BMP280;10206;48.012;10.030;2023-02-13T09:43:31;96638.59;;;5.64
31528;BMP280;10206;48.012;10.030;2023-02-13T09:46:04;96638.75;;;5.92
31528;BMP280;10206;48.012;10.030;2023-02-13T09:48:35;96645.59;;;5.82
31528;BMP280;10206;48.012;10.030;2023-02-13T09:51:03;96638.78;;;6.03
31528;BMP280;10206;48.012;10.030;2023-02-13T09:53:30;96637.34;;;6.13
31528;BMP280;10206;48.012;10.030;2023-02-13T09:56:12;96643.50;;;6.14
31528;BMP280;10206;48.012;10.030;2023-02-13T09:59:00;96641.88;;;5.85
31528;BMP280;10206;48.012;10.030;2023-02-13T10:01:37;96645.72;;;6.10
31528;BMP280;10206;48.012;10.030;2023-02-13T10:06:45;96635.44;;;6.30
31528;BMP280;10206;48.012;10.030;2023-02-13T10:11:58;96636.72;;;6.41
31528;BMP280;10206;48.012;10.030;2023-02-13T10:19:46;96638.72;;;6.51
31528;BMP280;10206;48.012;10.030;2023-02-13T10:22:16;96636.97;;;6.48
31528;BMP280;10206;48.012;10.030;2023-02-13T10:25:02;96633.81;;;5.91
31528;BMP280;10206;48.012;10.030;2023-02-13T10:27:36;96630.09;;;5.88
31528;BMP280;10206;48.012;10.030;2023-02-13T10:38:37;96627.66;;;7.21
31528;BMP280;10206;48.012;10.030;2023-02-13T10:46:45;96626.16;;;7.31
31528;BMP280;10206;48.012;10.030;2023-02-13T10:49:31;96620.03;;;7.03
31528;BMP280;10206;48.012;10.030;2023-02-13T11:02:38;96626.66;;;7.35
31528;BMP280;10206;48.012;10.030;2023-02-13T11:05:16;96628.59;;;7.40
31528;BMP280;10206;48.012;10.030;2023-02-13T11:07:44;96619.69;;;7.40
31528;BMP280;10206;48.012;10.030;2023-02-13T11:10:20;96622.34;;;7.79
31528;BMP280;10206;48.012;10.030;2023-02-13T11:12:47;96626.03;;;7.76
31528;BMP280;10206;48.012;10.030;2023-02-13T11:15:29;96611.53;;;7.56
31528;BMP280;10206;48.012;10.030;2023-02-13T11:18:03;96608.31;;;7.64
31528;BMP280;10206;48.012;10.030;2023-02-13T11:20:39;96609.16;;;7.20
31528;BMP280;10206;48.012;10.030;2023-02-13T11:28:33;96604.28;;;7.87
31528;BMP280;10206;48.012;10.030;2023-02-13T11:33:47;96602.66;;;7.62
31528;BMP280;10206;48.012;10.030;2023-02-13T11:36:21;96601.34;;;7.74
31528;BMP280;10206;48.012;10.030;2023-02-13T11:39:01;96595.31;;;7.23
31528;BMP280;10206;48.012;10.030;2023-02-13T11:41:28;96590.56;;;7.46
31528;BMP280;10206;48.012;10.030;2023-02-13T11:43:56;96588.31;;;7.55
31528;BMP280;10206;48.012;10.030;2023-02-13T11:46:28;96592.91;;;7.94
31528;BMP280;10206;48.012;10.030;2023-02-13T11:51:45;96596.25;;;8.11
31528;BMP280;10206;48.012;10.030;2023-02-13T11:54:43;96585.44;;;8.46
31528;BMP280;10206;48.012;10.030;2023-02-13T11:57:33;96591.53;;;8.87
31528;BMP280;10206;48.012;10.030;2023-02-13T12:00:25;96585.97;;;8.74
31528;BMP280;10206;48.012;10.030;2023-02-13T12:02:48;96582.94;;;9.08
31528;BMP280;10206;48.012;10.030;2023-02-13T12:05:25;96589.94;;;8.73
31528;BMP280;10206;48.012;10.030;2023-02-13T12:07:58;96582.38;;;8.90
31528;BMP280;10206;48.012;10.030;2023-02-13T12:10:27;96578.28;;;8.73
31528;BMP280;10206;48.012;10.030;2023-02-13T12:15:39;96581.69;;;9.33
31528;BMP280;10206;48.012;10.030;2023-02-13T12:18:18;96586.47;;;9.51
31528;BMP280;10206;48.012;10.030;2023-02-13T12:26:33;96579.41;;;9.98
31528;BMP280;10206;48.012;10.030;2023-02-13T12:40:22;96563.44;;;9.89
31528;BMP280;10206;48.012;10.030;2023-02-13T12:49:16;96560.56;;;10.00
31528;BMP280;10206;48.012;10.030;2023-02-13T12:51:52;96549.00;;;10.45
31528;BMP280;10206;48.012;10.030;2023-02-13T13:08:13;96538.78;;;11.42
31528;BMP280;10206;48.012;10.030;2023-02-13T13:27:17;96523.69;;;9.38
31528;BMP280;10206;48.012;10.030;2023-02-13T13:29:53;96524.16;;;9.42
31528;BMP280;10206;48.012;10.030;2023-02-13T13:32:21;96526.72;;;9.10
31528;BMP280;10206;48.012;10.030;2023-02-13T13:34:47;96527.69;;;8.88
31528;BMP280;10206;48.012;10.030;2023-02-13T13:37:33;96532.91;;;8.86
31528;BMP280;10206;48.012;10.030;2023-02-13T13:40:12;96529.00;;;8.82
31528;BMP280;10206;48.012;10.030;2023-02-13T13:42:55;96525.78;;;8.83
31528;BMP280;10206;48.012;10.030;2023-02-13T13:51:06;96536.03;;;8.37
31528;BMP280;10206;48.012;10.030;2023-02-13T13:53:32;96537.56;;;8.62
31528;BMP280;10206;48.012;10.030;2023-02-13T13:56:01;96543.19;;;8.40
31528;BMP280;10206;48.012;10.030;2023-02-13T14:01:17;96545.50;;;8.60
31528;BMP280;10206;48.012;10.030;2023-02-13T14:03:58;96544.63;;;8.46
31528;BMP280;10206;48.012;10.030;2023-02-13T14:09:40;96538.56;;;8.29
31528;BMP280;10206;48.012;10.030;2023-02-13T14:14:55;96554.78;;;8.40
31528;BMP280;10206;48.012;10.030;2023-02-13T14:22:54;96550.78;;;8.11
31528;BMP280;10206;48.012;10.030;2023-02-13T14:25:23;96546.63;;;8.05
31528;BMP280;10206;48.012;10.030;2023-02-13T14:28:02;96557.44;;;8.16
31528;BMP280;10206;48.012;10.030;2023-02-13T14:30:34;96554.88;;;8.29
31528;BMP280;10206;48.012;10.030;2023-02-13T14:33:04;96551.00;;;8.19
31528;BMP280;10206;48.012;10.030;2023-02-13T14:35:34;96558.25;;;8.05
31528;BMP280;10206;48.012;10.030;2023-02-13T14:38:03;96554.03;;;8.10
31528;BMP280;10206;48.012;10.030;2023-02-13T14:40:49;96550.28;;;7.67
31528;BMP280;10206;48.012;10.030;2023-02-13T14:43:32;96554.47;;;7.73
31528;BMP280;10206;48.012;10.030;2023-02-13T14:49:06;96548.13;;;7.48
31528;BMP280;10206;48.012;10.030;2023-02-13T14:51:58;96544.88;;;7.55
31528;BMP280;10206;48.012;10.030;2023-02-13T14:54:31;96547.44;;;7.20
31528;BMP280;10206;48.012;10.030;2023-02-13T14:57:06;96545.88;;;7.52
31528;BMP280;10206;48.012;10.030;2023-02-13T14:59:37;96537.56;;;7.28
31528;BMP280;10206;48.012;10.030;2023-02-13T15:04:56;96535.81;;;7.36
31528;BMP280;10206;48.012;10.030;2023-02-13T15:07:27;96539.50;;;7.44
31528;BMP280;10206;48.012;10.030;2023-02-13T15:09:58;96540.50;;;7.41
31528;BMP280;10206;48.012;10.030;2023-02-13T15:12:30;96544.22;;;7.38
31528;BMP280;10206;48.012;10.030;2023-02-13T15:14:57;96540.31;;;7.23
31528;BMP280;10206;48.012;10.030;2023-02-13T15:17:29;96541.81;;;7.02
31528;BMP280;10206;48.012;10.030;2023-02-13T15:20:16;96533.16;;;7.14
31528;BMP280;10206;48.012;10.030;2023-02-13T15:22:46;96539.06;;;7.18
31528;BMP280;10206;48.012;10.030;2023-02-13T15:25:28;96531.72;;;7.02
31528;BMP280;10206;48.012;10.030;2023-02-13T15:27:56;96538.59;;;7.09
31528;BMP280;10206;48.012;10.030;2023-02-13T15:30:32;96530.44;;;7.14
31528;BMP280;10206;48.012;10.030;2023-02-13T15:35:36;96535.41;;;7.10
31528;BMP280;10206;48.012;10.030;2023-02-13T15:38:24;96533.41;;;7.22
31528;BMP280;10206;48.012;10.030;2023-02-13T15:40:52;96538.88;;;7.00
31528;BMP280;10206;48.012;10.030;2023-02-13T15:43:32;96527.25;;;7.05
31528;BMP280;10206;48.012;10.030;2023-02-13T15:46:26;96532.66;;;7.21
31528;BMP280;10206;48.012;10.030;2023-02-13T15:48:54;96531.44;;;6.94
31528;BMP280;10206;48.012;10.030;2023-02-13T15:51:26;96529.00;;;6.91
31528;BMP280;10206;48.012;10.030;2023-02-13T15:54:25;96535.66;;;7.01
31528;BMP280;10206;48.012;10.030;2023-02-13T15:56:52;96537.66;;;6.73
31528;BMP280;10206;48.012;10.030;2023-02-13T15:59:19;96531.75;;;6.58
31528;BMP280;10206;48.012;10.030;2023-02-13T16:01:46;96535.69;;;6.73
31528;BMP280;10206;48.012;10.030;2023-02-13T16:04:14;96537.66;;;6.73
31528;BMP280;10206;48.012;10.030;2023-02-13T16:06:46;96537.66;;;6.78
31528;BMP280;10206;48.012;10.030;2023-02-13T16:12:04;96539.41;;;6.65
31528;BMP280;10206;48.012;10.030;2023-02-13T16:14:33;96541.59;;;6.44
31528;BMP280;10206;48.012;10.030;2023-02-13T16:19:30;96539.09;;;6.29
31528;BMP280;10206;48.012;10.030;2023-02-13T16:22:15;96530.00;;;6.32
31528;BMP280;10206;48.012;10.030;2023-02-13T16:24:49;96536.13;;;6.27
31528;BMP280;10206;48.012;10.030;2023-02-13T16:27:16;96539.34;;;6.43
31528;BMP280;10206;48.012;10.030;2023-02-13T16:29:53;96538.63;;;6.37
31528;BMP280;10206;48.012;10.030;2023-02-13T16:32:32;96528.28;;;6.35
31528;BMP280;10206;48.012;10.030;2023-02-13T16:35:37;96524.59;;;6.49
31528;BMP280;10206;48.012;10.030;2023-02-13T16:38:03;96534.94;;;6.45
31528;BMP280;10206;48.012;10.030;2023-02-13T16:40:42;96530.00;;;6.49
31528;BMP280;10206;48.012;10.030;2023-02-13T16:46:33;96529.25;;;6.54
31528;BMP280;10206;48.012;10.030;2023-02-13T16:48:59;96535.94;;;6.53
31528;BMP280;10206;48.012;10.030;2023-02-13T16:56:41;96538.13;;;6.44
31528;BMP280;10206;48.012;10.030;2023-02-13T16:59:28;96535.91;;;6.31
31528;BMP280;10206;48.012;10.030;2023-02-13T17:02:21;96541.59;;;6.61
31528;BMP280;10206;48.012;10.030;2023-02-13T17:04:53;96551.41;;;6.30
31528;BMP280;10206;48.012;10.030;2023-02-13T17:07:22;96547.94;;;6.13
31528;BMP280;10206;48.012;10.030;2023-02-13T17:10:02;96552.19;;;6.48
31528;BMP280;10206;48.012;10.030;2023-02-13T17:12:30;96555.38;;;6.35
31528;BMP280;10206;48.012;10.030;2023-02-13T17:14:58;96559.31;;;6.40
31528;BMP280;10206;48.012;10.030;2023-02-13T17:17:29;96561.78;;;6.38
31528;BMP280;10206;48.012;10.030;2023-02-13T17:19:57;96555.88;;;6.45
31528;BMP280;10206;48.012;10.030;2023-02-13T17:22:37;96563.03;;;6.59
31528;BMP280;10206;48.012;10.030;2023-02-13T17:25:19;96562.78;;;6.57
31528;BMP280;10206;48.012;10.030;2023-02-13T17:27:48;96558.84;;;6.63
31528;BMP280;10206;48.012;10.030;2023-02-13T17:30:35;96568.47;;;6.64
31528;BMP280;10206;48.012;10.030;2023-02-13T17:33:06;96561.56;;;6.63
31528;BMP280;10206;48.012;10.030;2023-02-13T17:35:32;96556.13;;;6.41